Time;durP1;ratioP1;P1;durP2;ratioP2;P2;SDS_P1;SDS_P2;PMS_P1;PMS_P2;Temp;Humidity;BMP_temperature;BMP_pressure;BME280_temperature;BME280_humidity;BME280_pressure;Samples;Min_cycle;Max_cycle;Signal;HPM_P1;HPM_P2
2022/07/10 00:00:28;;;;;;;4.17;3.87;;;17.90;99.90;;;;;;5009497;28;20659;-80
2022/07/10 00:02:55;;;;;;;5.80;4.10;;;17.90;99.90;;;;;;5012290;28;20631;-80
2022/07/10 00:05:23;;;;;;;5.50;4.37;;;17.90;99.90;;;;;;5009690;28;21179;-80
2022/07/10 00:07:52;;;;;;;4.30;3.90;;;17.80;99.90;;;;;;5005548;28;20966;-80
2022/07/10 00:10:19;;;;;;;4.63;4.33;;;17.80;99.90;;;;;;5010170;28;20690;-80
2022/07/10 00:12:46;;;;;;;4.60;4.30;;;17.70;99.90;;;;;;5009195;28;20986;-80
2022/07/10 00:15:15;;;;;;;4.87;4.50;;;17.80;99.90;;;;;;5012042;28;20650;-80
2022/07/10 00:17:42;;;;;;;4.97;4.60;;;17.80;99.90;;;;;;5010304;28;20958;-80
2022/07/10 00:20:11;;;;;;;4.57;4.27;;;17.80;99.90;;;;;;5012509;28;20714;-80
2022/07/10 00:22:38;;;;;;;4.80;4.50;;;17.80;99.90;;;;;;5011748;28;20677;-80
2022/07/10 00:25:09;;;;;;;5.03;4.70;;;17.80;99.90;;;;;;5009383;28;21204;-80
2022/07/10 00:27:36;;;;;;;5.37;4.87;;;17.80;99.90;;;;;;5008213;28;20631;-80
2022/07/10 00:30:03;;;;;;;4.10;3.80;;;17.80;99.90;;;;;;5009565;28;20679;-80
2022/07/10 00:32:31;;;;;;;5.83;4.63;;;17.80;99.90;;;;;;5010793;28;20663;-80
2022/07/10 00:34:58;;;;;;;4.27;3.90;;;17.80;99.90;;;;;;5011582;28;20726;-80
2022/07/10 00:37:24;;;;;;;5.30;4.80;;;17.80;99.90;;;;;;5008053;28;20662;-80
2022/07/10 00:39:51;;;;;;;5.60;5.10;;;17.80;99.90;;;;;;5005831;28;21719;-80
2022/07/10 00:42:20;;;;;;;5.50;5.07;;;17.80;99.90;;;;;;5009741;28;21622;-80
2022/07/10 00:44:46;;;;;;;7.00;4.33;;;17.80;99.90;;;;;;5009419;28;20627;-80
2022/07/10 00:47:17;;;;;;;6.70;5.00;;;17.80;99.90;;;;;;5014708;28;20634;-80
2022/07/10 00:49:44;;;;;;;4.93;4.60;;;17.80;99.90;;;;;;5009779;28;20682;-80
2022/07/10 00:52:13;;;;;;;5.03;4.63;;;17.90;99.90;;;;;;5008434;28;20639;-80
2022/07/10 00:54:44;;;;;;;5.13;4.73;;;17.80;99.90;;;;;;5009243;28;20628;-80
2022/07/10 00:57:12;;;;;;;5.20;4.50;;;17.80;99.90;;;;;;5009978;28;20623;-80
2022/07/10 00:59:40;;;;;;;5.13;4.73;;;17.80;99.90;;;;;;5011459;28;20666;-79
2022/07/10 01:02:08;;;;;;;4.87;4.47;;;17.80;99.90;;;;;;5012573;28;20634;-80
2022/07/10 01:04:35;;;;;;;7.03;5.27;;;17.90;99.90;;;;;;5009306;28;20723;-79
2022/07/10 01:07:02;;;;;;;5.53;5.13;;;17.90;99.90;;;;;;5011213;28;20631;-79
2022/07/10 01:09:29;;;;;;;5.23;4.50;;;17.80;99.90;;;;;;5009523;28;21047;-79
2022/07/10 01:11:57;;;;;;;4.00;3.70;;;17.70;99.90;;;;;;5007276;28;20632;-80
2022/07/10 01:14:26;;;;;;;4.70;4.23;;;17.70;99.90;;;;;;5008843;28;20646;-81
2022/07/10 01:16:54;;;;;;;4.10;3.80;;;17.60;99.90;;;;;;5010912;28;20640;-80
2022/07/10 01:19:21;;;;;;;4.20;3.80;;;17.60;99.90;;;;;;5013388;28;20990;-80
2022/07/10 01:21:49;;;;;;;4.77;4.47;;;17.50;99.90;;;;;;5011659;28;20635;-81
2022/07/10 01:24:16;;;;;;;4.53;4.13;;;17.50;99.90;;;;;;5008325;28;20636;-80
2022/07/10 01:26:44;;;;;;;6.60;4.73;;;17.40;99.90;;;;;;5007417;28;20628;-80
2022/07/10 01:29:12;;;;;;;4.70;4.30;;;17.40;99.90;;;;;;5010253;28;20635;-81
2022/07/10 01:31:39;;;;;;;6.33;4.33;;;17.40;99.90;;;;;;5008140;28;21179;-81
2022/07/10 01:34:08;;;;;;;5.27;4.87;;;17.30;99.90;;;;;;5012957;28;21178;-81
2022/07/10 01:36:36;;;;;;;4.33;4.00;;;17.30;99.90;;;;;;5005001;28;20627;-81
2022/07/10 01:39:04;;;;;;;5.10;4.37;;;17.20;99.90;;;;;;5007447;28;20627;-80
2022/07/10 01:41:31;;;;;;;4.60;4.30;;;17.10;99.90;;;;;;5009402;28;20738;-80
2022/07/10 01:43:58;;;;;;;5.00;4.63;;;17.10;99.90;;;;;;5008263;28;20640;-81
2022/07/10 01:46:25;;;;;;;5.40;4.43;;;17.10;99.90;;;;;;5004327;28;20635;-81
2022/07/10 01:48:53;;;;;;;4.30;4.07;;;17.10;99.90;;;;;;5010075;28;20653;-81
2022/07/10 01:51:20;;;;;;;4.90;4.60;;;17.10;99.90;;;;;;5005423;28;21167;-81
2022/07/10 01:53:46;;;;;;;4.77;4.37;;;17.00;99.90;;;;;;5010955;28;20627;-81
2022/07/10 01:56:16;;;;;;;4.83;4.50;;;17.00;99.90;;;;;;5008636;28;20638;-81
2022/07/10 01:58:43;;;;;;;5.00;4.50;;;17.00;99.90;;;;;;5010872;28;20631;-81
2022/07/10 02:01:10;;;;;;;6.77;4.70;;;17.00;99.90;;;;;;5008020;28;20659;-81
2022/07/10 02:06:21;;;;;;;5.07;4.67;;;16.90;99.90;;;;;;5007597;28;20638;-79
2022/07/10 02:08:48;;;;;;;4.57;4.37;;;16.90;99.90;;;;;;5009912;28;20622;-80
2022/07/10 02:11:16;;;;;;;5.37;4.87;;;16.90;99.90;;;;;;5007609;28;20687;-80
2022/07/10 02:13:43;;;;;;;4.83;4.43;;;16.80;99.90;;;;;;5006325;28;20632;-79
2022/07/10 02:16:10;;;;;;;5.47;4.60;;;16.80;99.90;;;;;;5009973;28;20639;-79
2022/07/10 02:18:37;;;;;;;5.00;4.70;;;16.70;99.90;;;;;;5006941;28;20674;-79
2022/07/10 02:21:04;;;;;;;4.90;4.50;;;16.70;99.90;;;;;;5009010;28;20659;-79
2022/07/10 02:23:31;;;;;;;5.00;4.50;;;16.70;99.90;;;;;;5008003;28;21612;-79
2022/07/10 02:25:58;;;;;;;5.40;5.10;;;16.60;99.90;;;;;;5008591;28;21195;-80
2022/07/10 02:28:26;;;;;;;6.07;5.40;;;16.60;99.90;;;;;;5009094;28;20638;-80
2022/07/10 02:30:53;;;;;;;6.00;5.43;;;16.60;99.90;;;;;;5007478;28;20678;-79
2022/07/10 02:33:20;;;;;;;6.10;5.70;;;16.60;99.90;;;;;;5009709;28;20639;-79
2022/07/10 02:35:47;;;;;;;5.80;5.37;;;16.60;99.90;;;;;;5009129;28;20631;-80
2022/07/10 02:38:13;;;;;;;5.07;4.67;;;16.70;99.90;;;;;;5006625;28;20650;-79
2022/07/10 02:40:41;;;;;;;12.00;6.17;;;16.60;99.90;;;;;;5009337;28;20656;-79
2022/07/10 02:43:07;;;;;;;6.67;6.07;;;16.60;99.90;;;;;;5005895;28;20658;-79
2022/07/10 02:45:35;;;;;;;7.77;6.30;;;16.70;99.90;;;;;;5001740;28;20632;-79
2022/07/10 02:48:02;;;;;;;5.80;5.40;;;16.60;99.90;;;;;;5005009;28;20630;-80
2022/07/10 02:50:29;;;;;;;6.27;5.77;;;16.70;99.90;;;;;;5008935;28;21094;-79
2022/07/10 02:52:56;;;;;;;5.97;5.57;;;16.70;99.90;;;;;;5007792;28;20639;-80
2022/07/10 02:55:22;;;;;;;5.60;5.10;;;16.70;99.90;;;;;;5006818;28;20635;-80
2022/07/10 02:57:49;;;;;;;5.83;5.43;;;16.70;99.90;;;;;;5007117;28;20627;-80
2022/07/10 03:00:16;;;;;;;6.60;5.93;;;16.70;99.90;;;;;;5010769;28;20654;-80
2022/07/10 03:02:44;;;;;;;6.70;5.97;;;16.70;99.90;;;;;;5006728;28;20632;-80
2022/07/10 03:05:11;;;;;;;6.30;5.90;;;16.70;99.90;;;;;;5004505;28;20636;-80
2022/07/10 03:07:38;;;;;;;6.33;5.83;;;16.70;99.90;;;;;;5006652;28;20723;-80
2022/07/10 03:10:05;;;;;;;7.00;6.50;;;16.70;99.90;;;;;;5008034;28;20678;-81
2022/07/10 03:12:32;;;;;;;6.00;5.60;;;16.70;99.90;;;;;;5006018;28;21190;-80
2022/07/10 03:14:59;;;;;;;6.90;6.40;;;16.70;99.90;;;;;;5007913;28;20631;-81
2022/07/10 03:17:27;;;;;;;7.00;6.50;;;16.70;99.90;;;;;;5006578;28;20632;-81
2022/07/10 03:19:55;;;;;;;6.80;6.30;;;16.70;99.90;;;;;;5008839;28;20642;-81
2022/07/10 03:22:22;;;;;;;5.93;5.53;;;16.70;99.90;;;;;;5008199;28;20635;-81
2022/07/10 03:24:49;;;;;;;7.03;6.43;;;16.60;99.90;;;;;;5005185;28;20623;-80
2022/07/10 03:27:16;;;;;;;6.97;6.37;;;16.70;99.90;;;;;;5006961;28;20666;-81
2022/07/10 03:29:43;;;;;;;6.93;6.43;;;16.70;99.90;;;;;;5004693;28;20659;-80
2022/07/10 03:32:09;;;;;;;7.30;6.70;;;16.70;99.90;;;;;;5006749;28;20718;-80
2022/07/10 03:34:36;;;;;;;6.90;6.40;;;16.70;99.90;;;;;;5004726;28;20635;-81
2022/07/10 03:37:05;;;;;;;7.33;6.50;;;16.70;99.90;;;;;;5008383;28;20633;-80
2022/07/10 03:39:32;;;;;;;7.17;6.67;;;16.70;99.90;;;;;;5005561;28;20650;-80
2022/07/10 03:41:58;;;;;;;6.63;6.20;;;16.70;99.90;;;;;;5008051;28;20984;-80
2022/07/10 03:44:25;;;;;;;6.73;6.30;;;16.70;99.90;;;;;;5004840;28;21163;-80
2022/07/10 03:46:52;;;;;;;6.80;6.30;;;16.70;99.90;;;;;;5008880;28;20632;-80
2022/07/10 03:49:19;;;;;;;7.23;6.73;;;16.60;99.90;;;;;;5007159;28;20635;-81
2022/07/10 03:51:45;;;;;;;6.23;5.80;;;16.60;99.90;;;;;;5006174;28;20667;-81
2022/07/10 03:54:13;;;;;;;7.30;6.80;;;16.50;99.90;;;;;;5000721;28;20628;-80
2022/07/10 03:59:25;;;;;;;7.33;6.83;;;16.40;99.90;;;;;;5004665;28;20719;-80
2022/07/10 04:01:52;;;;;;;7.00;6.40;;;16.40;99.90;;;;;;5007129;28;20635;-81
2022/07/10 04:04:18;;;;;;;7.90;7.20;;;16.40;99.90;;;;;;5007018;28;20632;-81
2022/07/10 04:06:45;;;;;;;8.13;7.43;;;16.40;99.90;;;;;;5009033;28;20623;-80
2022/07/10 04:09:13;;;;;;;7.63;7.03;;;16.40;99.90;;;;;;5009695;28;20721;-80
2022/07/10 04:11:40;;;;;;;8.20;7.00;;;16.30;99.90;;;;;;5009297;28;20663;-80
2022/07/10 04:14:07;;;;;;;7.10;6.60;;;16.30;99.90;;;;;;5008858;28;20639;-81
2022/07/10 04:16:34;;;;;;;7.30;6.63;;;16.30;99.90;;;;;;5009880;28;20634;-80
2022/07/10 04:19:00;;;;;;;6.97;6.47;;;16.30;99.90;;;;;;5007954;28;20640;-80
2022/07/10 04:21:27;;;;;;;7.47;7.00;;;16.30;99.90;;;;;;5014054;28;20648;-81
2022/07/10 04:23:54;;;;;;;7.80;7.20;;;16.30;99.90;;;;;;5010254;28;20643;-80
2022/07/10 04:26:22;;;;;;;7.07;6.57;;;16.30;99.90;;;;;;5008949;28;20642;-81
2022/07/10 04:28:49;;;;;;;6.57;5.90;;;16.30;99.90;;;;;;5009820;28;20654;-80
2022/07/10 04:31:15;;;;;;;6.40;5.90;;;16.40;99.90;;;;;;5009660;28;20694;-81
2022/07/10 04:33:42;;;;;;;7.57;6.97;;;16.40;99.90;;;;;;5006243;28;20636;-81
2022/07/10 04:36:09;;;;;;;7.90;7.30;;;16.50;99.90;;;;;;5013327;28;20638;-81
2022/07/10 04:38:36;;;;;;;6.97;6.47;;;16.50;99.90;;;;;;5011690;28;21194;-80
2022/07/10 04:41:03;;;;;;;6.70;6.30;;;16.60;99.90;;;;;;5010845;28;20734;-80
2022/07/10 04:43:32;;;;;;;7.43;6.87;;;16.60;99.90;;;;;;5009397;28;20643;-81
2022/07/10 04:45:59;;;;;;;7.23;6.60;;;16.60;99.90;;;;;;5005198;28;20994;-81
2022/07/10 04:48:25;;;;;;;6.73;6.23;;;16.60;99.90;;;;;;5009859;28;20634;-80
2022/07/10 04:50:52;;;;;;;7.23;6.57;;;16.70;99.90;;;;;;5009552;28;20674;-80
2022/07/10 04:53:19;;;;;;;6.27;5.77;;;16.60;99.90;;;;;;5008236;28;20730;-81
2022/07/10 04:55:47;;;;;;;5.93;5.53;;;16.70;99.90;;;;;;5012274;28;21189;-81
2022/07/10 04:58:13;;;;;;;5.97;5.57;;;16.70;99.90;;;;;;5008336;28;20624;-81
2022/07/10 05:00:41;;;;;;;6.40;5.80;;;16.60;99.90;;;;;;5006190;28;20691;-81
2022/07/10 05:03:08;;;;;;;6.47;5.73;;;16.70;99.90;;;;;;5005319;28;20628;-81
2022/07/10 05:05:35;;;;;;;5.20;4.70;;;16.70;99.90;;;;;;5003945;28;20635;-81
2022/07/10 05:08:02;;;;;;;5.33;4.83;;;16.70;99.90;;;;;;5011710;28;20627;-81
2022/07/10 05:10:29;;;;;;;5.07;4.47;;;16.80;99.90;;;;;;5008167;28;20678;-81
2022/07/10 05:12:55;;;;;;;6.63;4.67;;;16.80;99.90;;;;;;5007544;28;20612;-79
2022/07/10 05:15:22;;;;;;;4.53;4.23;;;16.90;99.90;;;;;;5009813;28;20770;-81
2022/07/10 05:17:50;;;;;;;5.63;4.33;;;16.90;99.90;;;;;;5008300;28;20632;-82
2022/07/10 05:20:17;;;;;;;4.83;4.43;;;17.00;99.90;;;;;;5009924;28;21459;-81
2022/07/10 05:22:44;;;;;;;5.67;5.13;;;17.10;99.90;;;;;;5010160;28;20635;-81
2022/07/10 05:25:11;;;;;;;6.50;5.43;;;17.10;99.90;;;;;;5008048;28;20639;-82
2022/07/10 05:27:38;;;;;;;4.37;4.07;;;17.10;99.90;;;;;;5016299;28;20719;-81
2022/07/10 05:30:05;;;;;;;4.33;4.03;;;17.20;99.90;;;;;;5005355;28;21754;-81
2022/07/10 05:32:32;;;;;;;5.60;4.30;;;17.30;99.90;;;;;;5008285;28;20678;-81
2022/07/10 05:35:00;;;;;;;5.90;5.30;;;17.30;99.90;;;;;;5007815;28;21005;-81
2022/07/10 05:37:27;;;;;;;6.10;4.20;;;17.30;99.90;;;;;;5006643;28;21282;-81
2022/07/10 05:39:54;;;;;;;4.83;4.37;;;17.30;99.90;;;;;;5006794;28;20660;-80
2022/07/10 05:42:21;;;;;;;6.20;5.03;;;17.30;99.90;;;;;;5010162;28;20638;-80
2022/07/10 05:44:49;;;;;;;4.60;4.00;;;17.40;99.90;;;;;;5007163;28;20627;-80
2022/07/10 05:47:15;;;;;;;4.40;4.00;;;17.40;99.90;;;;;;5008290;28;20655;-80
2022/07/10 05:49:42;;;;;;;4.23;3.93;;;17.30;99.90;;;;;;5008126;28;20999;-81
2022/07/10 05:52:10;;;;;;;8.33;3.43;;;17.40;99.90;;;;;;5007549;28;20670;-80
2022/07/10 05:54:37;;;;;;;4.00;3.03;;;17.30;99.90;;;;;;5009674;28;20631;-80
2022/07/10 05:57:04;;;;;;;3.60;3.30;;;17.40;99.90;;;;;;5008166;28;21310;-79
2022/07/10 05:59:34;;;;;;;7.50;4.07;;;17.40;99.90;;;;;;5010170;28;21242;-80
2022/07/10 06:02:00;;;;;;;2.90;2.70;;;17.50;99.90;;;;;;5007784;28;20639;-80
2022/07/10 06:04:27;;;;;;;4.93;2.80;;;17.50;99.90;;;;;;5007117;28;20632;-80
2022/07/10 06:06:54;;;;;;;3.90;3.60;;;17.50;99.90;;;;;;5010330;28;20999;-80
2022/07/10 06:09:23;;;;;;;4.37;2.90;;;17.50;99.90;;;;;;5007823;28;20688;-80
2022/07/10 06:11:49;;;;;;;4.33;2.90;;;17.60;99.90;;;;;;5006910;28;21275;-80
2022/07/10 06:14:16;;;;;;;7.90;2.90;;;17.70;99.90;;;;;;5006738;28;20659;-80
2022/07/10 06:16:45;;;;;;;2.73;2.53;;;17.80;99.90;;;;;;5009323;28;20994;-80
2022/07/10 06:19:12;;;;;;;2.87;2.60;;;17.90;99.90;;;;;;5006835;28;20628;-80
2022/07/10 06:21:39;;;;;;;6.83;2.80;;;18.00;99.90;;;;;;5009606;28;20711;-80
2022/07/10 06:24:06;;;;;;;4.17;2.83;;;18.10;99.90;;;;;;5006112;28;20642;-80
2022/07/10 06:26:34;;;;;;;2.33;2.13;;;18.20;99.90;;;;;;5006864;28;20631;-80
2022/07/10 06:29:01;;;;;;;2.40;2.20;;;18.40;99.90;;;;;;5008801;28;20640;-80
2022/07/10 06:31:28;;;;;;;3.57;2.70;;;18.50;99.90;;;;;;5005508;28;20684;-79
2022/07/10 06:33:55;;;;;;;4.43;2.30;;;18.60;99.90;;;;;;5010438;28;20732;-80
2022/07/10 06:36:22;;;;;;;2.07;1.97;;;18.70;99.90;;;;;;5008695;28;20639;-79
2022/07/10 06:38:48;;;;;;;4.10;1.93;;;18.70;99.90;;;;;;5005458;28;20624;-80
2022/07/10 06:41:15;;;;;;;2.70;1.93;;;18.80;99.90;;;;;;5012088;28;20663;-80
2022/07/10 06:43:43;;;;;;;5.10;2.73;;;18.80;99.90;;;;;;5010594;28;20639;-79
2022/07/10 06:46:10;;;;;;;2.40;2.20;;;18.80;99.90;;;;;;5010579;28;20642;-79
2022/07/10 06:48:39;;;;;;;2.90;1.80;;;18.80;99.90;;;;;;5008814;28;20620;-79
2022/07/10 06:51:07;;;;;;;3.67;1.90;;;18.80;99.90;;;;;;5005248;28;20730;-79
2022/07/10 06:53:34;;;;;;;2.30;2.13;;;18.80;99.90;;;;;;5008165;28;20632;-80
2022/07/10 06:56:01;;;;;;;2.63;2.00;;;18.90;99.90;;;;;;5007215;28;20711;-79
2022/07/10 06:58:28;;;;;;;2.77;1.97;;;18.80;99.90;;;;;;5003861;28;20748;-79
2022/07/10 07:00:56;;;;;;;2.90;2.17;;;18.80;99.90;;;;;;5004588;28;20686;-79
2022/07/10 07:03:23;;;;;;;4.87;2.30;;;18.80;99.90;;;;;;5008010;28;21033;-79
2022/07/10 07:05:50;;;;;;;4.60;1.70;;;18.60;99.90;;;;;;5003882;28;20634;-79
2022/07/10 07:08:17;;;;;;;3.07;1.93;;;18.60;99.90;;;;;;5007878;28;20627;-79
2022/07/10 07:10:44;;;;;;;3.30;2.00;;;18.70;99.90;;;;;;5006324;28;20647;-79
2022/07/10 07:13:11;;;;;;;4.60;2.20;;;18.70;99.90;;;;;;5004812;28;20655;-81
2022/07/10 07:15:41;;;;;;;2.53;2.10;;;18.80;99.90;;;;;;5008315;28;20650;-80
2022/07/10 07:18:12;;;;;;;3.27;2.07;;;18.90;99.90;;;;;;5008210;28;20620;-80
2022/07/10 07:23:23;;;;;;;3.27;1.87;;;19.10;99.90;;;;;;5005982;28;20564;-80
2022/07/10 07:25:50;;;;;;;4.93;2.00;;;19.10;99.90;;;;;;5007809;28;20624;-80
2022/07/10 07:28:18;;;;;;;3.77;2.47;;;19.10;99.90;;;;;;5008343;28;20634;-79
2022/07/10 07:30:45;;;;;;;3.90;1.87;;;19.20;99.90;;;;;;5006968;28;20663;-79
2022/07/10 07:33:14;;;;;;;3.47;1.30;;;19.30;99.90;;;;;;5006445;28;20635;-80
2022/07/10 07:35:40;;;;;;;1.77;1.63;;;19.40;99.90;;;;;;5007086;28;20623;-80
2022/07/10 07:38:07;;;;;;;5.30;3.73;;;19.60;99.90;;;;;;5003216;28;20647;-80
2022/07/10 07:40:37;;;;;;;5.30;2.03;;;19.70;99.90;;;;;;5002753;28;20659;-79
2022/07/10 07:43:04;;;;;;;6.57;1.87;;;19.70;99.90;;;;;;5008831;28;20674;-80
2022/07/10 07:45:30;;;;;;;6.83;2.30;;;19.60;99.90;;;;;;5007165;28;20634;-80
2022/07/10 07:48:01;;;;;;;4.70;2.40;;;19.70;99.90;;;;;;5010066;28;20632;-80
2022/07/10 07:50:31;;;;;;;3.73;1.80;;;19.70;99.90;;;;;;5010242;28;20678;-80
2022/07/10 07:52:59;;;;;;;2.83;1.50;;;19.80;99.90;;;;;;5010197;28;21618;-80
2022/07/10 07:55:26;;;;;;;4.27;1.60;;;19.70;99.90;;;;;;5013590;28;20636;-80
2022/07/10 07:57:54;;;;;;;4.47;1.97;;;19.60;99.90;;;;;;5010235;28;20615;-80
2022/07/10 08:00:22;;;;;;;2.60;1.63;;;19.50;99.90;;;;;;5008874;28;20714;-80
2022/07/10 08:02:49;;;;;;;3.33;1.80;;;19.50;99.90;;;;;;5010930;28;20719;-80
2022/07/10 08:05:17;;;;;;;2.40;1.37;;;19.60;99.90;;;;;;5009510;28;20638;-80
2022/07/10 08:07:46;;;;;;;2.63;1.63;;;19.60;99.90;;;;;;5011758;28;20623;-80
2022/07/10 08:10:15;;;;;;;3.17;1.47;;;19.50;99.90;;;;;;5010115;28;20659;-80
2022/07/10 08:12:42;;;;;;;2.53;1.67;;;19.50;99.90;;;;;;5008973;28;20675;-80
2022/07/10 08:15:11;;;;;;;3.33;1.67;;;19.50;99.90;;;;;;5010515;28;20726;-80
2022/07/10 08:17:41;;;;;;;4.83;1.80;;;19.50;99.90;;;;;;5009388;28;21061;-79
2022/07/10 08:20:11;;;;;;;2.40;1.70;;;19.50;99.90;;;;;;5007777;28;20659;-80
2022/07/10 08:22:38;;;;;;;1.83;1.40;;;19.60;99.90;;;;;;5007433;28;20663;-80
2022/07/10 08:25:07;;;;;;;2.53;1.77;;;19.70;99.90;;;;;;5008783;28;20627;-80
2022/07/10 08:27:34;;;;;;;2.60;1.60;;;19.70;99.90;;;;;;5010970;28;21230;-80
2022/07/10 08:30:01;;;;;;;2.93;1.77;;;19.80;99.90;;;;;;5009682;28;20741;-80
2022/07/10 08:32:28;;;;;;;6.20;1.90;;;19.90;99.90;;;;;;5011319;28;20675;-79
2022/07/10 08:34:55;;;;;;;1.97;1.27;;;20.00;99.90;;;;;;5009793;28;20639;-80
2022/07/10 08:37:22;;;;;;;4.63;1.47;;;20.10;99.90;;;;;;5009414;28;20646;-80
2022/07/10 08:39:49;;;;;;;3.70;1.60;;;20.30;99.90;;;;;;5008229;28;21523;-80
2022/07/10 08:42:18;;;;;;;2.03;1.27;;;20.40;99.90;;;;;;5011616;28;20999;-79
2022/07/10 08:44:45;;;;;;;2.63;1.43;;;20.40;99.50;;;;;;5009103;28;20628;-80
2022/07/10 08:47:14;;;;;;;1.90;1.33;;;20.50;99.00;;;;;;5010931;28;20732;-80
2022/07/10 08:49:47;;;;;;;2.70;1.60;;;20.60;98.00;;;;;;5007903;28;20995;-80
2022/07/10 08:52:25;;;;;;;3.43;1.53;;;20.70;97.90;;;;;;5007390;28;20667;-80
2022/07/10 08:54:53;;;;;;;5.53;1.80;;;20.70;97.10;;;;;;5010777;28;20630;-80
2022/07/10 08:57:23;;;;;;;2.60;1.57;;;20.50;97.40;;;;;;5008232;28;20645;-80
2022/07/10 08:59:50;;;;;;;2.60;1.20;;;20.40;97.80;;;;;;5007810;28;20650;-80
2022/07/10 09:02:16;;;;;;;2.40;1.30;;;20.30;98.70;;;;;;5009651;28;21103;-80
2022/07/10 09:04:43;;;;;;;2.70;1.50;;;20.00;97.90;;;;;;5008876;28;21496;-80
2022/07/10 09:07:11;;;;;;;3.07;2.17;;;20.00;98.40;;;;;;5010066;28;20644;-80
2022/07/10 09:09:53;;;;;;;2.43;1.37;;;19.90;98.30;;;;;;5010436;28;20659;-80
2022/07/10 09:12:22;;;;;;;5.03;1.90;;;20.00;98.60;;;;;;5005830;28;20723;-80
2022/07/10 09:14:49;;;;;;;2.03;1.20;;;20.20;97.90;;;;;;5010009;28;21076;-80
2022/07/10 09:17:15;;;;;;;5.77;1.60;;;20.30;97.50;;;;;;5008571;28;20642;-80
2022/07/10 09:19:43;;;;;;;1.90;1.70;;;20.30;96.90;;;;;;5011422;28;20655;-80
2022/07/10 09:22:12;;;;;;;2.17;1.60;;;20.30;97.30;;;;;;5008710;28;20631;-80
2022/07/10 09:24:39;;;;;;;4.20;1.70;;;20.30;98.30;;;;;;5016595;28;20640;-80
2022/07/10 09:27:07;;;;;;;2.37;1.10;;;20.50;97.10;;;;;;5008154;28;20632;-80
2022/07/10 09:29:46;;;;;;;2.63;2.00;;;20.60;96.70;;;;;;5010255;28;20658;-80
2022/07/10 09:32:13;;;;;;;2.70;1.70;;;20.70;95.70;;;;;;5005313;28;20685;-80
2022/07/10 09:34:42;;;;;;;3.70;1.93;;;20.70;96.40;;;;;;5011190;28;21197;-79
2022/07/10 09:37:19;;;;;;;3.10;1.83;;;20.70;96.30;;;;;;5005894;28;20689;-79
2022/07/10 09:39:59;;;;;;;2.10;1.37;;;20.60;96.50;;;;;;5005222;28;20678;-80
2022/07/10 09:42:31;;;;;;;4.20;1.10;;;20.50;96.20;;;;;;5010171;28;20631;-80
2022/07/10 09:45:19;;;;;;;4.40;1.70;;;20.40;95.20;;;;;;5008742;28;20711;-80
2022/07/10 09:47:55;;;;;;;2.30;2.10;;;20.30;96.10;;;;;;5007781;28;21012;-80
2022/07/10 09:50:24;;;;;;;3.97;1.27;;;20.50;96.00;;;;;;5008327;28;21295;-80
2022/07/10 09:52:53;;;;;;;2.80;1.40;;;20.70;94.90;;;;;;5005908;28;20666;-80
2022/07/10 09:55:22;;;;;;;3.97;1.33;;;20.90;95.20;;;;;;5012715;28;20641;-80
2022/07/10 09:57:55;;;;;;;3.53;1.10;;;21.00;93.80;;;;;;5007655;28;20844;-80
2022/07/10 10:00:28;;;;;;;1.67;1.20;;;21.00;93.40;;;;;;5006247;28;20675;-79
2022/07/10 10:02:57;;;;;;;1.60;1.20;;;21.10;94.00;;;;;;5007871;28;21111;-80
2022/07/10 10:05:35;;;;;;;1.33;1.10;;;21.20;93.40;;;;;;5006765;28;21206;-80
2022/07/10 10:08:06;;;;;;;1.10;1.00;;;21.50;94.10;;;;;;5012119;28;20632;-80
2022/07/10 10:10:36;;;;;;;3.30;1.37;;;21.60;92.90;;;;;;5007542;28;20658;-80
2022/07/10 10:13:08;;;;;;;3.53;1.40;;;21.70;92.30;;;;;;5006423;28;20701;-81
2022/07/10 10:15:37;;;;;;;2.53;1.60;;;21.80;91.80;;;;;;5004951;28;20620;-81
2022/07/10 10:18:05;;;;;;;2.43;1.50;;;21.80;92.10;;;;;;5006792;28;20627;-80
2022/07/10 10:20:39;;;;;;;1.97;1.20;;;21.90;91.50;;;;;;5009207;28;20715;-81
2022/07/10 10:23:09;;;;;;;1.93;1.40;;;22.00;91.20;;;;;;5010012;28;20620;-81
2022/07/10 10:25:37;;;;;;;2.83;1.40;;;22.20;91.30;;;;;;5003173;28;20654;-81
2022/07/10 10:28:06;;;;;;;2.47;1.30;;;22.20;88.60;;;;;;5008833;28;20647;-81
2022/07/10 10:30:37;;;;;;;3.33;1.40;;;22.10;89.50;;;;;;5007258;28;21155;-81
2022/07/10 10:33:25;;;;;;;1.47;1.37;;;22.10;90.30;;;;;;5008838;28;20663;-80
2022/07/10 10:35:53;;;;;;;1.33;1.07;;;22.20;90.20;;;;;;5006859;28;20714;-81
2022/07/10 10:38:20;;;;;;;1.90;1.77;;;22.30;89.90;;;;;;5005742;28;20651;-81
2022/07/10 10:40:47;;;;;;;1.53;1.10;;;22.30;88.00;;;;;;5009384;28;20653;-82
2022/07/10 10:43:19;;;;;;;1.60;1.00;;;22.30;88.50;;;;;;5005451;28;20639;-79
2022/07/10 10:45:46;;;;;;;1.30;1.00;;;22.30;87.90;;;;;;5004817;28;20638;-81
2022/07/10 10:48:16;;;;;;;2.23;1.00;;;22.30;87.30;;;;;;5002934;28;20627;-81
2022/07/10 10:50:46;;;;;;;2.70;1.33;;;22.30;87.10;;;;;;5007981;28;20652;-81
2022/07/10 10:53:17;;;;;;;3.40;1.80;;;22.20;87.80;;;;;;5006247;28;20675;-81
2022/07/10 10:56:25;;;;;;;2.40;1.47;;;22.30;88.10;;;;;;5007525;28;20635;-80
2022/07/10 10:58:52;;;;;;;7.53;1.53;;;22.20;86.40;;;;;;5006086;28;20620;-80
2022/07/10 11:01:26;;;;;;;1.17;0.93;;;22.00;86.40;;;;;;5005881;28;20709;-80
2022/07/10 11:04:19;;;;;;;3.40;1.13;;;22.10;86.60;;;;;;5004897;28;21296;-81
2022/07/10 11:06:49;;;;;;;1.87;1.10;;;22.40;86.80;;;;;;5011213;28;20669;-81
2022/07/10 11:09:27;;;;;;;3.97;2.03;;;22.70;86.70;;;;;;5006665;28;20671;-81
2022/07/10 11:12:08;;;;;;;1.40;1.30;;;22.70;84.70;;;;;;5004487;28;20636;-81
2022/07/10 11:14:36;;;;;;;1.73;1.10;;;22.50;84.20;;;;;;5001189;28;20619;-81
2022/07/10 11:17:04;;;;;;;2.83;1.10;;;22.40;83.40;;;;;;5009033;28;20631;-80
2022/07/10 11:19:33;;;;;;;1.70;1.13;;;22.60;86.70;;;;;;5011743;28;20655;-80
2022/07/10 11:22:11;;;;;;;2.83;1.77;;;22.80;84.70;;;;;;5012242;28;20635;-80
2022/07/10 11:24:43;;;;;;;3.77;1.33;;;22.90;84.70;;;;;;5009378;28;21459;-81
2022/07/10 11:27:27;;;;;;;1.27;0.97;;;22.90;83.00;;;;;;5009430;28;21440;-79
2022/07/10 11:30:00;;;;;;;2.70;1.23;;;22.80;85.60;;;;;;5009525;28;20670;-80
2022/07/10 11:32:28;;;;;;;1.40;1.03;;;22.90;86.20;;;;;;5011951;28;20792;-82
2022/07/10 11:34:56;;;;;;;1.73;1.53;;;23.10;85.10;;;;;;5012977;28;20627;-81
2022/07/10 11:37:28;;;;;;;2.30;1.30;;;23.10;85.10;;;;;;5011726;28;20631;-80
2022/07/10 11:40:09;;;;;;;6.77;2.50;;;23.50;84.30;;;;;;5009596;28;20663;-80
2022/07/10 11:42:50;;;;;;;2.57;1.13;;;23.60;82.60;;;;;;5012161;28;20623;-81
2022/07/10 11:45:28;;;;;;;2.87;1.60;;;23.40;81.30;;;;;;5006502;28;20682;-80
2022/07/10 11:47:56;;;;;;;3.20;1.03;;;23.20;79.10;;;;;;5009136;28;20631;-80
2022/07/10 11:50:25;;;;;;;0.83;0.70;;;23.20;78.60;;;;;;5008712;28;20654;-80
2022/07/10 11:52:52;;;;;;;2.30;1.10;;;23.50;78.20;;;;;;5010152;28;20666;-80
2022/07/10 11:55:20;;;;;;;1.90;0.90;;;23.50;79.40;;;;;;5014152;28;20649;-80
2022/07/10 11:57:49;;;;;;;4.13;1.50;;;23.40;81.10;;;;;;5009495;28;20718;-81
2022/07/10 12:00:24;;;;;;;3.63;1.30;;;23.30;81.60;;;;;;5006406;28;21386;-81
2022/07/10 12:02:51;;;;;;;2.03;1.03;;;23.30;82.20;;;;;;5009733;28;20674;-81
2022/07/10 12:05:40;;;;;;;3.17;1.47;;;23.50;81.10;;;;;;5009694;28;20666;-81
2022/07/10 12:08:07;;;;;;;1.57;1.20;;;23.90;81.20;;;;;;5014630;28;20624;-81
2022/07/10 12:10:34;;;;;;;1.53;1.00;;;24.40;77.30;;;;;;5009574;28;20650;-81
2022/07/10 12:13:10;;;;;;;1.73;1.20;;;24.60;75.20;;;;;;5008118;28;21535;-80
2022/07/10 12:15:39;;;;;;;1.57;1.27;;;24.50;75.30;;;;;;5007279;28;20641;-81
2022/07/10 12:18:07;;;;;;;2.43;0.90;;;24.60;77.10;;;;;;5009576;28;20633;-81
2022/07/10 12:20:35;;;;;;;2.30;1.63;;;24.70;76.20;;;;;;5010826;28;20658;-80
2022/07/10 12:23:04;;;;;;;2.40;1.50;;;24.50;76.30;;;;;;5008390;28;20686;-81
2022/07/10 12:25:31;;;;;;;3.23;1.40;;;24.30;76.30;;;;;;5007550;28;20636;-81
2022/07/10 12:27:58;;;;;;;2.60;1.10;;;24.30;77.60;;;;;;5007998;28;20626;-81
2022/07/10 12:30:40;;;;;;;1.33;1.17;;;24.60;77.70;;;;;;5007370;28;20854;-80
2022/07/10 12:33:15;;;;;;;1.63;1.10;;;25.00;75.70;;;;;;5010942;28;20685;-80
2022/07/10 12:35:50;;;;;;;2.77;1.27;;;25.50;73.30;;;;;;5007568;28;20622;-80
2022/07/10 12:38:20;;;;;;;1.73;1.00;;;25.90;72.60;;;;;;5004361;28;20630;-80
2022/07/10 12:40:48;;;;;;;1.50;1.10;;;26.10;71.40;;;;;;5009150;28;21004;-80
2022/07/10 12:43:27;;;;;;;2.00;0.83;;;26.30;70.60;;;;;;5006129;28;20731;-80
2022/07/10 12:46:11;;;;;;;2.13;1.13;;;26.90;70.80;;;;;;5009274;28;21169;-80
2022/07/10 12:48:40;;;;;;;1.00;0.90;;;27.30;68.50;;;;;;5006770;28;21186;-80
2022/07/10 12:51:28;;;;;;;2.50;1.00;;;27.70;67.50;;;;;;5008422;28;20698;-80
2022/07/10 12:53:56;;;;;;;2.47;0.80;;;28.30;66.70;;;;;;5006431;28;20733;-81
2022/07/10 12:56:35;;;;;;;3.77;0.97;;;28.40;63.90;;;;;;5009784;28;20639;-81
2022/07/10 12:59:03;;;;;;;1.77;1.20;;;28.00;62.30;;;;;;5006876;28;21143;-80
2022/07/10 13:01:40;;;;;;;3.13;1.20;;;27.60;62.50;;;;;;5009164;28;20640;-80
2022/07/10 13:04:08;;;;;;;1.30;1.10;;;27.50;63.90;;;;;;5007501;28;20794;-79